createdAt,value
2023-05-14T00:01:31.319Z,68.65
2023-05-14T00:03:57.819Z,70.14
2023-05-14T00:06:25.807Z,69.32
2023-05-14T00:08:52.255Z,68.59
2023-05-14T00:11:18.664Z,69.65
2023-05-14T00:13:45.107Z,68.45
2023-05-14T00:16:11.569Z,68.05
2023-05-14T00:18:38.122Z,68.12
2023-05-14T00:21:04.638Z,67.92
2023-05-14T00:23:32.457Z,67.74
2023-05-14T00:25:58.891Z,67.00
2023-05-14T00:28:25.438Z,66.86
2023-05-14T00:30:51.837Z,67.00
2023-05-14T00:33:18.486Z,66.76
2023-05-14T00:35:44.911Z,67.10
2023-05-14T00:38:11.367Z,66.60
2023-05-14T00:40:39.269Z,66.52
2023-05-14T00:43:05.704Z,68.00
2023-05-14T00:45:32.215Z,67.72
2023-05-14T00:47:58.724Z,67.57
2023-05-14T00:50:25.324Z,68.28
2023-05-14T00:52:52.052Z,68.83
2023-05-14T00:55:18.544Z,68.34
2023-05-14T00:57:46.522Z,68.53
2023-05-14T01:00:13.453Z,67.66
2023-05-14T01:02:39.997Z,66.77
2023-05-14T01:05:06.676Z,67.30
2023-05-14T01:07:37.839Z,66.78
2023-05-14T01:10:06.193Z,66.36
2023-05-14T01:12:33.863Z,66.37
2023-05-14T01:15:02.249Z,66.27
2023-05-14T01:17:29.245Z,66.50
2023-05-14T01:19:55.762Z,66.26
2023-05-14T01:22:23.576Z,66.30
2023-05-14T01:24:50.052Z,66.53
2023-05-14T01:27:17.368Z,66.84
2023-05-14T01:29:45.693Z,68.20
2023-05-14T01:32:12.335Z,68.57
2023-05-14T01:34:38.886Z,68.47
2023-05-14T01:37:05.318Z,67.49
2023-05-14T01:39:34.369Z,67.86
2023-05-14T01:42:00.817Z,68.47
2023-05-14T01:44:27.248Z,69.08
2023-05-14T01:46:53.706Z,69.63
2023-05-14T01:49:20.252Z,70.22
2023-05-14T01:51:46.713Z,71.11
2023-05-14T01:54:13.202Z,70.11
2023-05-14T01:56:41.010Z,67.97
2023-05-14T01:59:07.647Z,70.34
2023-05-14T02:01:34.168Z,71.69
2023-05-14T02:04:00.763Z,72.25
2023-05-14T02:06:27.199Z,72.46
2023-05-14T02:08:53.647Z,72.84
2023-05-14T02:11:20.069Z,73.27
2023-05-14T02:13:48.027Z,72.18
2023-05-14T02:16:14.517Z,74.57
2023-05-14T02:18:41.076Z,74.33
2023-05-14T02:21:07.596Z,75.21
2023-05-14T02:23:41.185Z,75.34
2023-05-14T02:26:09.046Z,73.71
2023-05-14T02:28:35.501Z,72.79
2023-05-14T02:31:03.499Z,74.29
2023-05-14T02:33:30.095Z,74.48
2023-05-14T02:35:56.605Z,74.04
2023-05-14T02:38:23.112Z,73.48
2023-05-14T02:40:49.553Z,73.58
2023-05-14T02:43:16.004Z,75.04
2023-05-14T02:45:42.487Z,75.00
2023-05-14T02:48:10.331Z,75.47
2023-05-14T02:50:36.815Z,74.45
2023-05-14T02:53:03.238Z,74.01
2023-05-14T02:55:29.677Z,74.32
2023-05-14T02:57:56.109Z,72.92
2023-05-14T03:00:22.837Z,70.83
2023-05-14T03:02:49.807Z,71.72
2023-05-14T03:05:18.072Z,72.07
2023-05-14T03:07:44.531Z,73.81
2023-05-14T03:10:10.979Z,74.60
2023-05-14T03:12:37.417Z,73.89
2023-05-14T03:15:04.028Z,72.24
2023-05-14T03:17:30.499Z,72.15
2023-05-14T03:19:57.028Z,71.48
2023-05-14T03:22:24.964Z,70.99
2023-05-14T03:24:51.444Z,71.11
2023-05-14T03:27:17.855Z,71.48
2023-05-14T03:29:44.319Z,69.88
2023-05-14T03:32:10.750Z,70.05
2023-05-14T03:34:37.238Z,70.05
2023-05-14T03:37:03.867Z,70.46
2023-05-14T03:39:31.659Z,69.83
2023-05-14T03:41:58.207Z,69.67
2023-05-14T03:44:24.759Z,69.19
2023-05-14T03:46:51.332Z,70.21
2023-05-14T03:49:17.797Z,70.20
2023-05-14T03:51:44.260Z,69.04
2023-05-14T03:54:10.706Z,69.04
2023-05-14T03:56:38.511Z,69.54
2023-05-14T03:59:05.028Z,70.16
2023-05-14T04:01:31.498Z,71.64
2023-05-14T04:03:58.101Z,71.11
2023-05-14T04:06:24.628Z,71.73
2023-05-14T04:08:51.049Z,73.14
2023-05-14T04:11:17.568Z,72.48
2023-05-14T04:13:45.358Z,72.60
2023-05-14T04:16:11.829Z,71.42
2023-05-14T04:18:38.371Z,70.01
2023-05-14T04:21:05.033Z,70.75
2023-05-14T04:23:31.493Z,71.85
2023-05-14T04:25:57.939Z,71.70
2023-05-14T04:28:24.424Z,71.55
2023-05-14T04:30:52.879Z,71.82
2023-05-14T04:33:19.325Z,71.21
2023-05-14T04:35:45.835Z,69.77
2023-05-14T04:38:12.299Z,69.30
2023-05-14T04:40:38.769Z,69.47
2023-05-14T04:43:05.206Z,68.95
2023-05-14T04:45:34.003Z,68.47
2023-05-14T04:48:02.189Z,68.28
2023-05-14T04:50:28.685Z,68.27
2023-05-14T04:52:55.122Z,68.81
2023-05-14T04:55:21.615Z,70.25
2023-05-14T04:57:48.061Z,69.11
2023-05-14T05:00:15.042Z,69.66
2023-05-14T05:02:41.624Z,69.72
2023-05-14T05:05:09.975Z,69.83
2023-05-14T05:07:36.446Z,72.61
2023-05-14T05:10:02.910Z,71.52
2023-05-14T05:12:29.398Z,69.78
2023-05-14T05:14:56.137Z,69.53
2023-05-14T05:17:22.566Z,69.81
2023-05-14T05:19:49.038Z,69.88
2023-05-14T05:22:16.886Z,70.53
2023-05-14T05:24:43.372Z,69.17
2023-05-14T05:27:09.860Z,67.81
2023-05-14T05:29:36.284Z,68.86
2023-05-14T05:32:02.791Z,69.00
2023-05-14T05:34:29.241Z,68.89
2023-05-14T05:36:55.711Z,68.36
2023-05-14T05:39:23.506Z,68.91
2023-05-14T05:41:49.939Z,69.13
2023-05-14T05:44:16.417Z,68.13
2023-05-14T05:46:43.021Z,67.92
2023-05-14T05:49:09.492Z,68.13
2023-05-14T05:51:35.968Z,68.95
2023-05-14T05:54:02.443Z,68.21
2023-05-14T05:56:30.437Z,68.06
2023-05-14T05:58:56.873Z,68.08
2023-05-14T06:01:23.300Z,67.88
2023-05-14T06:03:49.710Z,68.68
2023-05-14T06:06:16.159Z,69.32
2023-05-14T06:08:42.618Z,69.73
2023-05-14T06:11:09.065Z,69.85
2023-05-14T06:13:36.888Z,68.82
2023-05-14T06:16:03.442Z,68.46
2023-05-14T06:18:29.900Z,69.78
2023-05-14T06:20:56.452Z,69.54
2023-05-14T06:23:22.912Z,69.16
2023-05-14T06:25:50.672Z,69.81
2023-05-14T06:28:17.388Z,68.69
2023-05-14T06:30:45.280Z,69.73
2023-05-14T06:33:11.756Z,67.93
2023-05-14T06:35:38.266Z,67.88
2023-05-14T06:38:04.726Z,67.56
2023-05-14T06:40:31.158Z,67.35
2023-05-14T06:42:57.558Z,68.14
2023-05-14T06:45:24.084Z,67.15
2023-05-14T06:47:52.034Z,67.95
2023-05-14T06:50:18.546Z,71.15
2023-05-14T06:52:44.977Z,70.01
2023-05-14T06:55:11.453Z,69.41
2023-05-14T06:57:40.502Z,67.92
2023-05-14T07:00:07.848Z,66.58
2023-05-14T07:02:34.447Z,66.59
2023-05-14T07:05:02.254Z,66.78
2023-05-14T07:07:28.706Z,69.29
2023-05-14T07:09:55.130Z,69.14
2023-05-14T07:12:21.579Z,69.63
2023-05-14T07:14:48.051Z,68.69
2023-05-14T07:17:14.966Z,67.89
2023-05-14T07:19:41.423Z,67.69
2023-05-14T07:22:09.305Z,67.73
2023-05-14T07:24:35.742Z,70.61
2023-05-14T07:27:02.174Z,69.99
2023-05-14T07:29:28.598Z,71.04
2023-05-14T07:31:55.096Z,71.23
2023-05-14T07:34:21.555Z,69.63
2023-05-14T07:36:47.995Z,69.58
2023-05-14T07:39:15.831Z,68.76
2023-05-14T07:41:42.289Z,68.24
2023-05-14T07:44:08.692Z,68.24
2023-05-14T07:46:36.256Z,70.26
2023-05-14T07:49:02.905Z,69.19
2023-05-14T07:51:29.393Z,70.23
2023-05-14T07:53:55.838Z,68.85
2023-05-14T07:56:23.655Z,67.91
2023-05-14T07:58:50.067Z,67.85
2023-05-14T08:01:16.510Z,69.90
2023-05-14T08:03:43.090Z,71.28
2023-05-14T08:06:09.613Z,69.67
2023-05-14T08:08:36.108Z,68.54
2023-05-14T08:11:02.955Z,67.05
2023-05-14T08:13:30.801Z,66.63
2023-05-14T08:15:57.335Z,67.47
2023-05-14T08:18:23.767Z,67.05
2023-05-14T08:20:50.184Z,66.32
2023-05-14T08:23:16.758Z,65.85
2023-05-14T08:25:43.188Z,65.67
2023-05-14T08:28:09.704Z,67.93
2023-05-14T08:30:37.693Z,70.64
2023-05-14T08:33:04.251Z,68.91
2023-05-14T08:35:30.693Z,68.48
2023-05-14T08:37:57.194Z,71.06
2023-05-14T08:40:23.917Z,69.63
2023-05-14T08:42:50.868Z,68.27
2023-05-14T08:45:18.460Z,66.71
2023-05-14T08:47:46.489Z,67.00
2023-05-14T08:50:13.089Z,67.85
2023-05-14T08:52:39.546Z,68.33
2023-05-14T08:55:06.538Z,65.81
2023-05-14T08:57:33.271Z,64.92
2023-05-14T08:59:59.787Z,65.99
2023-05-14T09:02:28.198Z,68.27
2023-05-14T09:04:57.106Z,70.45
2023-05-14T09:07:23.705Z,69.17
2023-05-14T09:09:50.324Z,70.46
2023-05-14T09:12:16.741Z,71.16
2023-05-14T09:14:43.590Z,72.92
2023-05-14T09:17:10.054Z,72.62
2023-05-14T09:19:36.461Z,70.06
2023-05-14T09:22:09.612Z,70.71
2023-05-14T09:24:36.088Z,69.32
2023-05-14T09:27:02.513Z,69.53
2023-05-14T09:29:29.237Z,69.14
2023-05-14T09:31:55.817Z,68.13
2023-05-14T09:34:25.903Z,67.24
2023-05-14T09:36:54.450Z,69.79
2023-05-14T09:39:22.320Z,70.59
2023-05-14T09:41:48.761Z,70.13
2023-05-14T09:44:15.214Z,67.84
2023-05-14T09:46:41.664Z,67.81
2023-05-14T09:49:08.104Z,67.62
2023-05-14T09:51:34.518Z,67.58
2023-05-14T09:54:01.060Z,67.69
2023-05-14T09:56:28.852Z,66.70
2023-05-14T09:58:55.267Z,65.75
2023-05-14T10:01:21.852Z,65.02
2023-05-14T10:03:48.340Z,64.89
2023-05-14T10:06:15.278Z,66.13
2023-05-14T10:08:42.906Z,65.13
2023-05-14T10:11:11.140Z,64.66
2023-05-14T10:13:42.414Z,62.75
2023-05-14T10:16:11.456Z,65.99
2023-05-14T10:18:40.062Z,66.58
2023-05-14T10:21:06.954Z,66.92
2023-05-14T10:23:33.439Z,65.28
2023-05-14T10:25:59.904Z,64.31
2023-05-14T10:28:26.363Z,65.34
2023-05-14T10:30:54.284Z,67.27
2023-05-14T10:33:20.759Z,66.01
2023-05-14T10:35:57.248Z,64.85
2023-05-14T10:38:25.064Z,63.41
2023-05-14T10:40:54.105Z,63.40
2023-05-14T10:43:20.947Z,63.33
2023-05-14T10:45:47.371Z,62.49
2023-05-14T10:48:15.381Z,61.27
2023-05-14T10:50:41.966Z,60.64
2023-05-14T10:53:10.604Z,60.33
2023-05-14T10:55:37.062Z,61.01
2023-05-14T10:58:04.019Z,60.42
2023-05-14T11:00:30.552Z,61.82
2023-05-14T11:02:57.361Z,64.32
2023-05-14T11:05:25.331Z,63.25
2023-05-14T11:07:51.860Z,62.36
2023-05-14T11:10:19.050Z,63.93
2023-05-14T11:12:45.971Z,64.02
2023-05-14T11:15:12.961Z,64.08
2023-05-14T11:17:40.206Z,65.92
2023-05-14T11:20:07.288Z,65.04
2023-05-14T11:22:35.375Z,63.47
2023-05-14T11:25:01.872Z,63.02
2023-05-14T11:27:28.313Z,64.61
2023-05-14T11:29:54.774Z,65.52
2023-05-14T11:32:21.329Z,64.04
2023-05-14T11:34:47.826Z,65.25
2023-05-14T11:37:14.528Z,65.94
2023-05-14T11:39:47.335Z,66.31
2023-05-14T11:42:14.030Z,64.30
2023-05-14T11:44:40.571Z,62.59
2023-05-14T11:47:07.035Z,62.49
2023-05-14T11:49:33.447Z,62.26
2023-05-14T11:52:00.315Z,61.67
2023-05-14T11:54:27.048Z,59.78
2023-05-14T11:56:55.191Z,60.41
2023-05-14T11:59:21.613Z,62.17
2023-05-14T12:01:50.651Z,60.47
2023-05-14T12:04:17.748Z,59.92
2023-05-14T12:06:44.250Z,58.82
2023-05-14T12:09:12.355Z,57.77
2023-05-14T12:11:38.782Z,56.73
2023-05-14T12:14:11.857Z,54.89
2023-05-14T12:16:39.743Z,53.47
2023-05-14T12:19:06.506Z,52.97
2023-05-14T12:21:34.376Z,51.44
2023-05-14T12:24:00.940Z,49.52
2023-05-14T12:26:27.391Z,50.26
2023-05-14T12:28:56.920Z,49.95
2023-05-14T12:31:31.709Z,53.44
2023-05-14T12:37:04.232Z,52.49
2023-05-14T12:39:34.318Z,54.03
2023-05-14T12:42:00.826Z,54.90
2023-05-14T12:44:27.419Z,52.10
2023-05-14T12:46:55.283Z,53.72
2023-05-14T12:49:21.893Z,53.96
2023-05-14T12:51:48.399Z,53.01
2023-05-14T12:54:17.739Z,52.92
2023-05-14T12:56:44.226Z,55.20
2023-05-14T12:59:10.646Z,54.49
2023-05-14T13:01:37.316Z,53.04
2023-05-14T13:04:05.503Z,52.93
2023-05-14T13:06:32.118Z,55.16
2023-05-14T13:08:58.541Z,55.90
2023-05-14T13:11:25.189Z,53.35
2023-05-14T13:13:51.614Z,55.29
2023-05-14T13:16:18.124Z,54.48
2023-05-14T13:18:44.632Z,54.26
2023-05-14T13:21:12.476Z,54.67
2023-05-14T13:23:38.947Z,54.27
2023-05-14T13:26:05.376Z,53.99
2023-05-14T13:28:31.828Z,54.16
2023-05-14T13:31:05.905Z,53.29
2023-05-14T13:33:32.786Z,53.52
2023-05-14T13:35:59.197Z,53.02
2023-05-14T13:38:27.028Z,52.71
2023-05-14T13:40:53.490Z,53.51
2023-05-14T13:43:19.958Z,53.47
2023-05-14T13:45:52.631Z,51.72
2023-05-14T13:48:19.167Z,55.40
2023-05-14T13:50:45.581Z,53.60
2023-05-14T13:53:12.101Z,52.29
2023-05-14T13:55:39.885Z,52.27
2023-05-14T13:58:06.346Z,50.72
2023-05-14T14:00:32.858Z,50.87
2023-05-14T14:02:59.344Z,51.50
2023-05-14T14:05:26.145Z,51.38
2023-05-14T14:07:54.758Z,50.80
2023-05-14T14:10:33.129Z,53.25
2023-05-14T14:13:01.013Z,52.79
2023-05-14T14:15:27.447Z,52.81
2023-05-14T14:17:54.148Z,52.67
2023-05-14T14:20:20.622Z,53.95
2023-05-14T14:22:47.092Z,53.90
2023-05-14T14:25:13.532Z,52.62
2023-05-14T14:27:40.023Z,52.02
2023-05-14T14:30:09.197Z,53.47
2023-05-14T14:32:35.698Z,51.36
2023-05-14T14:35:02.172Z,49.94
2023-05-14T14:37:28.588Z,48.75
2023-05-14T14:39:55.039Z,48.64
2023-05-14T14:42:21.443Z,49.24
2023-05-14T14:44:47.841Z,49.81
2023-05-14T14:47:15.709Z,50.64
2023-05-14T14:49:42.152Z,49.95
2023-05-14T14:52:08.589Z,49.84
2023-05-14T14:54:35.004Z,49.27
2023-05-14T14:57:01.588Z,49.17
2023-05-14T14:59:28.068Z,47.17
2023-05-14T15:01:54.888Z,47.90
2023-05-14T15:04:22.802Z,47.74
2023-05-14T15:06:49.248Z,50.28
2023-05-14T15:09:15.729Z,49.61
2023-05-14T15:11:42.206Z,48.57
2023-05-14T15:14:08.655Z,47.49
2023-05-14T15:16:35.117Z,47.09
2023-05-14T15:19:01.631Z,44.87
2023-05-14T15:21:29.759Z,44.55
2023-05-14T15:23:56.205Z,45.76
2023-05-14T15:26:22.627Z,45.05
2023-05-14T15:28:49.126Z,46.45
2023-05-14T15:31:15.719Z,47.11
2023-05-14T15:33:42.235Z,48.75
2023-05-14T15:36:08.875Z,47.55
2023-05-14T15:38:36.773Z,46.84
2023-05-14T15:41:03.197Z,46.20
2023-05-14T15:43:29.629Z,46.99
2023-05-14T15:45:56.067Z,48.31
2023-05-14T15:48:22.655Z,48.29
2023-05-14T15:50:49.771Z,46.92
2023-05-14T15:53:16.406Z,46.38
2023-05-14T15:55:44.238Z,46.13
2023-05-14T15:58:10.682Z,46.47
2023-05-14T16:00:37.117Z,46.84
2023-05-14T16:03:03.797Z,48.84
2023-05-14T16:05:30.244Z,48.33
2023-05-14T16:07:56.648Z,51.00
2023-05-14T16:10:23.507Z,51.91
2023-05-14T16:12:51.578Z,51.50
2023-05-14T16:15:18.018Z,52.49
2023-05-14T16:17:44.532Z,54.11
2023-05-14T16:20:11.831Z,55.83
2023-05-14T16:22:38.283Z,58.99
2023-05-14T16:25:05.108Z,61.78
2023-05-14T16:27:31.663Z,61.68
2023-05-14T16:29:59.642Z,62.52
2023-05-14T16:32:26.178Z,62.24
2023-05-14T16:34:52.760Z,63.33
2023-05-14T16:37:19.318Z,63.46
2023-05-14T16:39:45.744Z,64.47
2023-05-14T16:42:12.201Z,63.46
2023-05-14T16:44:38.638Z,63.28
2023-05-14T16:47:07.012Z,65.36
2023-05-14T16:49:33.425Z,66.15
2023-05-14T16:51:59.881Z,65.83
2023-05-14T16:54:26.339Z,66.92
2023-05-14T16:56:52.768Z,66.01
2023-05-14T16:59:19.203Z,65.19
2023-05-14T17:01:45.665Z,65.11
2023-05-14T17:04:13.617Z,64.83
2023-05-14T17:06:40.088Z,65.62
2023-05-14T17:09:06.554Z,65.69
2023-05-14T17:11:32.982Z,65.33
2023-05-14T17:13:59.393Z,65.69
2023-05-14T17:16:25.858Z,65.01
2023-05-14T17:18:52.386Z,65.14
2023-05-14T17:21:20.257Z,65.53
2023-05-14T17:23:46.733Z,65.42
2023-05-14T17:26:13.256Z,65.37
2023-05-14T17:28:39.715Z,65.74
2023-05-14T17:31:06.216Z,64.76
2023-05-14T17:33:32.822Z,65.41
2023-05-14T17:35:59.271Z,66.00
2023-05-14T17:38:27.080Z,64.79
2023-05-14T17:40:53.538Z,64.42
2023-05-14T17:43:19.956Z,64.57
2023-05-14T17:45:53.838Z,64.26
2023-05-14T17:48:21.491Z,64.39
2023-05-14T17:50:47.931Z,63.23
2023-05-14T17:53:17.536Z,63.12
2023-05-14T17:55:45.349Z,63.42
2023-05-14T17:58:11.786Z,64.27
2023-05-14T18:00:38.297Z,65.35
2023-05-14T18:03:04.956Z,65.20
2023-05-14T18:05:31.492Z,65.39
2023-05-14T18:07:57.948Z,64.92
2023-05-14T18:10:24.419Z,65.18
2023-05-14T18:12:52.222Z,63.59
2023-05-14T18:15:19.145Z,63.79
2023-05-14T18:17:45.643Z,64.15
2023-05-14T18:20:12.190Z,64.91
2023-05-14T18:22:38.670Z,65.18
2023-05-14T18:25:05.625Z,66.15
2023-05-14T18:27:32.114Z,66.83
2023-05-14T18:29:59.893Z,67.26
2023-05-14T18:32:28.321Z,69.09
2023-05-14T18:34:54.775Z,69.55
2023-05-14T18:37:21.254Z,70.01
2023-05-14T18:39:47.728Z,69.83
2023-05-14T18:42:14.211Z,70.33
2023-05-14T18:44:40.608Z,69.91
2023-05-14T18:47:08.449Z,71.17
2023-05-14T18:49:34.900Z,68.11
2023-05-14T18:52:01.342Z,68.26
2023-05-14T18:54:27.811Z,68.43
2023-05-14T18:56:54.236Z,68.56
2023-05-14T18:59:20.679Z,69.07
2023-05-14T19:01:47.144Z,71.13
2023-05-14T19:04:15.286Z,72.02
2023-05-14T19:06:44.458Z,71.51
2023-05-14T19:09:10.906Z,71.53
2023-05-14T19:11:37.366Z,71.50
2023-05-14T19:14:03.942Z,71.41
2023-05-14T19:16:30.420Z,70.35
2023-05-14T19:18:57.028Z,70.13
2023-05-14T19:21:24.913Z,71.43
2023-05-14T19:23:52.622Z,69.47
2023-05-14T19:26:19.042Z,69.78
2023-05-14T19:28:45.496Z,68.31
2023-05-14T19:31:11.932Z,68.35
2023-05-14T19:33:38.413Z,68.50
2023-05-14T19:36:05.145Z,68.77
2023-05-14T19:38:33.274Z,68.62
2023-05-14T19:40:59.843Z,68.77
2023-05-14T19:43:26.281Z,68.78
2023-05-14T19:45:52.725Z,67.99
2023-05-14T19:48:19.218Z,67.68
2023-05-14T19:50:45.669Z,66.85
2023-05-14T19:53:12.106Z,67.62
2023-05-14T19:55:39.942Z,67.97
2023-05-14T19:58:06.466Z,67.71
2023-05-14T20:00:32.960Z,67.72
2023-05-14T20:03:08.750Z,67.65
2023-05-14T20:05:35.315Z,68.46
2023-05-14T20:08:01.818Z,68.82
2023-05-14T20:10:30.157Z,69.04
2023-05-14T20:12:57.967Z,68.98
2023-05-14T20:15:24.455Z,69.40
2023-05-14T20:17:50.980Z,68.40
2023-05-14T20:20:17.542Z,68.88
2023-05-14T20:22:44.017Z,69.47
2023-05-14T20:25:10.521Z,70.50
2023-05-14T20:27:37.000Z,71.32
2023-05-14T20:30:06.029Z,70.52
2023-05-14T20:32:32.483Z,70.49
2023-05-14T20:34:58.952Z,70.13
2023-05-14T20:37:25.350Z,69.66
2023-05-14T20:39:51.803Z,68.80
2023-05-14T20:42:18.316Z,68.05
2023-05-14T20:44:44.728Z,68.45
2023-05-14T20:47:12.722Z,68.86
2023-05-14T20:49:39.163Z,68.62
2023-05-14T20:52:08.405Z,68.64
2023-05-14T20:54:34.831Z,67.93
2023-05-14T20:57:01.272Z,68.62
2023-05-14T20:59:27.683Z,68.97
2023-05-14T21:01:54.155Z,69.15
2023-05-14T21:04:22.235Z,68.27
2023-05-14T21:06:48.865Z,68.06
2023-05-14T21:09:15.326Z,68.10
2023-05-14T21:11:41.733Z,67.79
2023-05-14T21:14:08.194Z,67.95
2023-05-14T21:16:35.163Z,68.52
2023-05-14T21:19:01.667Z,68.75
2023-05-14T21:21:29.505Z,68.61
2023-05-14T21:23:55.977Z,68.81
2023-05-14T21:26:22.404Z,69.17
2023-05-14T21:28:48.853Z,68.14
2023-05-14T21:31:15.337Z,68.26
2023-05-14T21:33:41.814Z,69.61
2023-05-14T21:36:08.412Z,69.68
2023-05-14T21:38:36.220Z,70.42
2023-05-14T21:41:02.672Z,71.49
2023-05-14T21:43:29.090Z,71.52
2023-05-14T21:45:55.576Z,71.70
2023-05-14T21:48:22.062Z,70.41
2023-05-14T21:50:48.580Z,70.82
2023-05-14T21:53:15.100Z,70.28
2023-05-14T21:55:42.943Z,70.39
2023-05-14T21:58:09.379Z,70.21
2023-05-14T22:00:35.841Z,69.91
2023-05-14T22:03:02.397Z,70.66
2023-05-14T22:05:29.061Z,70.48
2023-05-14T22:07:55.773Z,70.73
2023-05-14T22:10:22.304Z,72.17
2023-05-14T22:12:50.159Z,71.32
2023-05-14T22:15:16.574Z,70.37
2023-05-14T22:17:43.037Z,70.41
2023-05-14T22:20:09.690Z,70.94
2023-05-14T22:22:36.188Z,72.31
2023-05-14T22:27:30.276Z,73.11
2023-05-14T22:29:58.073Z,72.10
2023-05-14T22:32:24.664Z,71.68
2023-05-14T22:34:51.088Z,71.34
2023-05-14T22:37:17.535Z,71.09
2023-05-14T22:39:43.936Z,70.78
2023-05-14T22:42:10.388Z,70.95
2023-05-14T22:44:36.880Z,70.97
2023-05-14T22:47:04.944Z,69.86
2023-05-14T22:49:31.466Z,69.77
2023-05-14T22:51:57.892Z,70.15
2023-05-14T22:54:24.493Z,69.98
2023-05-14T22:56:50.946Z,69.77
2023-05-14T22:59:17.436Z,69.76
2023-05-14T23:01:43.942Z,69.76
2023-05-14T23:04:11.939Z,71.20
2023-05-14T23:06:38.435Z,70.93
2023-05-14T23:09:04.900Z,71.53
2023-05-14T23:11:31.409Z,72.12
2023-05-14T23:13:57.878Z,72.01
2023-05-14T23:16:24.334Z,72.42
2023-05-14T23:18:51.257Z,72.05
2023-05-14T23:21:19.235Z,71.29
2023-05-14T23:23:45.715Z,71.11
2023-05-14T23:26:12.144Z,71.17
2023-05-14T23:28:38.572Z,73.26
2023-05-14T23:31:05.065Z,73.16
2023-05-14T23:33:31.497Z,72.91
2023-05-14T23:35:58.015Z,72.92
2023-05-14T23:38:25.852Z,73.53
2023-05-14T23:40:52.337Z,74.13
2023-05-14T23:43:18.783Z,73.44
2023-05-14T23:45:45.263Z,73.00
2023-05-14T23:48:11.672Z,73.04
2023-05-14T23:50:38.121Z,73.29
2023-05-14T23:53:04.580Z,73.08
2023-05-14T23:55:32.394Z,72.56
2023-05-14T23:57:58.784Z,72.25
